createdAt,value
2023-03-08T00:00:03.218Z,98686.47
2023-03-08T00:02:29.609Z,98696.13
2023-03-08T00:04:55.993Z,98702.38
2023-03-08T00:07:22.389Z,98712.47
2023-03-08T00:09:48.707Z,98697.97
2023-03-08T00:12:15.087Z,98699.72
2023-03-08T00:14:41.455Z,98704.09
2023-03-08T00:17:07.797Z,98714.50
2023-03-08T00:19:34.122Z,98723.34
2023-03-08T00:22:00.531Z,98726.63
2023-03-08T00:24:26.850Z,98728.50
2023-03-08T00:26:53.215Z,98733.72
2023-03-08T00:29:19.622Z,98733.09
2023-03-08T00:31:46.018Z,98729.75
2023-03-08T00:34:12.391Z,98724.09
2023-03-08T00:36:38.693Z,98734.81
2023-03-08T00:39:05.019Z,98735.00
2023-03-08T00:41:31.442Z,98737.06
2023-03-08T00:43:57.814Z,98742.03
2023-03-08T00:46:24.340Z,98734.66
2023-03-08T00:48:50.674Z,98739.50
2023-03-08T00:51:17.055Z,98744.78
2023-03-08T00:53:43.406Z,98748.94
2023-03-08T00:56:09.727Z,98755.16
2023-03-08T00:58:36.050Z,98760.31
2023-03-08T01:01:02.451Z,98764.34
2023-03-08T01:03:28.841Z,98763.44
2023-03-08T01:05:55.196Z,98760.22
2023-03-08T01:08:21.503Z,98764.59
2023-03-08T01:10:47.869Z,98758.97
2023-03-08T01:13:14.186Z,98749.97
2023-03-08T01:15:40.503Z,98747.31
2023-03-08T01:18:06.852Z,98753.13
2023-03-08T01:20:33.157Z,98764.34
2023-03-08T01:22:59.519Z,98756.97
2023-03-08T01:25:25.870Z,98759.84
2023-03-08T01:27:52.230Z,98763.03
2023-03-08T01:30:18.536Z,98771.22
2023-03-08T01:32:44.876Z,98763.44
2023-03-08T01:35:11.182Z,98761.47
2023-03-08T01:37:37.527Z,98748.31
2023-03-08T01:40:05.088Z,98758.97
2023-03-08T01:42:31.400Z,98771.81
2023-03-08T01:44:57.725Z,98752.53
2023-03-08T01:47:24.066Z,98763.59
2023-03-08T01:49:50.395Z,98773.69
2023-03-08T01:52:16.699Z,98767.50
2023-03-08T01:54:43.026Z,98760.66
2023-03-08T01:57:09.353Z,98750.37
2023-03-08T01:59:35.709Z,98758.78
2023-03-08T02:02:02.021Z,98756.88
2023-03-08T02:04:28.323Z,98750.09
2023-03-08T02:06:54.651Z,98754.16
2023-03-08T02:09:20.991Z,98756.28
2023-03-08T02:11:47.295Z,98769.53
2023-03-08T02:14:13.610Z,98754.69
2023-03-08T02:16:39.974Z,98752.41
2023-03-08T02:19:06.391Z,98759.53
2023-03-08T02:21:32.724Z,98761.63
2023-03-08T02:23:59.035Z,98751.13
2023-03-08T02:26:25.350Z,98758.84
2023-03-08T02:28:51.763Z,98765.00
2023-03-08T02:31:18.105Z,98765.00
2023-03-08T02:33:44.464Z,98767.75
2023-03-08T02:36:10.884Z,98761.44
2023-03-08T02:38:37.252Z,98752.38
2023-03-08T02:41:03.582Z,98761.59
2023-03-08T02:43:29.925Z,98759.88
2023-03-08T02:45:56.274Z,98760.97
2023-03-08T02:48:22.626Z,98756.28
2023-03-08T02:50:49.001Z,98748.06
2023-03-08T02:53:15.329Z,98751.31
2023-03-08T02:55:41.646Z,98764.91
2023-03-08T02:58:07.972Z,98761.66
2023-03-08T03:00:34.302Z,98764.75
2023-03-08T03:03:00.638Z,98764.91
2023-03-08T03:05:27.031Z,98756.97
2023-03-08T03:07:55.439Z,98751.25
2023-03-08T03:10:21.822Z,98754.31
2023-03-08T03:12:48.155Z,98761.44
2023-03-08T03:15:14.458Z,98766.78
2023-03-08T03:17:40.838Z,98770.03
2023-03-08T03:20:08.250Z,98772.63
2023-03-08T03:22:34.575Z,98778.97
2023-03-08T03:25:00.896Z,98770.69
2023-03-08T03:27:27.236Z,98772.84
2023-03-08T03:29:53.569Z,98767.16
2023-03-08T03:32:19.918Z,98769.91
2023-03-08T03:34:46.323Z,98780.59
2023-03-08T03:37:12.681Z,98780.59
2023-03-08T03:39:39.207Z,98785.47
2023-03-08T03:42:05.517Z,98771.84
2023-03-08T03:44:31.833Z,98785.12
2023-03-08T03:46:58.135Z,98783.19
2023-03-08T03:49:24.466Z,98779.81
2023-03-08T03:51:50.806Z,98780.13
2023-03-08T03:54:17.125Z,98786.12
2023-03-08T03:56:43.451Z,98790.66
2023-03-08T03:59:09.770Z,98793.22
2023-03-08T04:01:36.086Z,98784.66
2023-03-08T04:04:02.454Z,98792.50
2023-03-08T04:06:28.867Z,98793.78
2023-03-08T04:08:55.170Z,98797.84
2023-03-08T04:11:21.483Z,98796.56
2023-03-08T04:13:47.896Z,98804.53
2023-03-08T04:16:14.424Z,98801.47
2023-03-08T04:18:40.772Z,98794.66
2023-03-08T04:21:07.089Z,98794.47
2023-03-08T04:23:33.500Z,98801.44
2023-03-08T04:25:59.831Z,98802.44
2023-03-08T04:28:26.130Z,98799.31
2023-03-08T04:30:52.529Z,98809.03
2023-03-08T04:33:18.854Z,98801.31
2023-03-08T04:35:45.225Z,98810.59
2023-03-08T04:38:12.271Z,98793.75
2023-03-08T04:40:58.586Z,98804.34
2023-03-08T04:43:24.922Z,98796.50
2023-03-08T04:45:51.248Z,98800.56
2023-03-08T04:48:17.607Z,98804.78
2023-03-08T04:50:43.986Z,98792.66
2023-03-08T04:53:10.293Z,98780.00
2023-03-08T04:55:36.614Z,98798.63
2023-03-08T04:58:03.051Z,98795.06
2023-03-08T05:00:29.383Z,98799.91
2023-03-08T05:02:55.677Z,98797.19
2023-03-08T05:05:21.994Z,98789.94
2023-03-08T05:07:48.378Z,98788.16
2023-03-08T05:10:14.772Z,98796.97
2023-03-08T05:12:41.092Z,98792.94
2023-03-08T05:15:07.432Z,98797.66
2023-03-08T05:17:33.764Z,98792.84
2023-03-08T05:20:00.116Z,98805.97
2023-03-08T05:22:26.470Z,98798.22
2023-03-08T05:24:52.822Z,98811.16
2023-03-08T05:27:19.314Z,98802.59
2023-03-08T05:29:45.617Z,98807.59
2023-03-08T05:32:12.284Z,98799.50
2023-03-08T05:34:38.638Z,98795.75
2023-03-08T05:37:04.978Z,98799.34
2023-03-08T05:39:31.293Z,98790.94
2023-03-08T05:41:57.626Z,98799.22
2023-03-08T05:44:23.941Z,98801.31
2023-03-08T05:46:50.267Z,98811.75
2023-03-08T05:49:16.621Z,98821.03
2023-03-08T05:51:42.936Z,98823.97
2023-03-08T05:54:09.239Z,98822.59
2023-03-08T05:56:35.572Z,98812.44
2023-03-08T05:59:01.925Z,98812.97
2023-03-08T06:01:28.326Z,98814.09
2023-03-08T06:03:54.665Z,98818.63
2023-03-08T06:06:20.978Z,98817.53
2023-03-08T06:08:47.331Z,98828.06
2023-03-08T06:11:13.711Z,98823.03
2023-03-08T06:13:40.215Z,98825.97
2023-03-08T06:16:06.592Z,98814.63
2023-03-08T06:18:33.621Z,98822.88
2023-03-08T06:20:59.976Z,98832.56
2023-03-08T06:23:26.425Z,98826.59
2023-03-08T06:25:52.739Z,98819.97
2023-03-08T06:28:19.124Z,98830.84
2023-03-08T06:30:45.521Z,98833.06
2023-03-08T06:33:11.878Z,98842.97
2023-03-08T06:35:38.257Z,98844.84
2023-03-08T06:38:04.605Z,98831.72
2023-03-08T06:40:30.975Z,98828.50
2023-03-08T06:42:57.342Z,98817.38
2023-03-08T06:45:23.683Z,98817.84
2023-03-08T06:47:49.989Z,98821.44
2023-03-08T06:50:16.305Z,98814.19
2023-03-08T06:52:42.637Z,98802.22
2023-03-08T06:55:08.952Z,98807.22
2023-03-08T06:57:35.405Z,98798.00
2023-03-08T07:00:01.866Z,98807.72
2023-03-08T07:02:28.182Z,98807.56
2023-03-08T07:04:54.498Z,98804.19
2023-03-08T07:07:20.902Z,98808.06
2023-03-08T07:09:47.223Z,98800.31
2023-03-08T07:12:13.564Z,98812.44
2023-03-08T07:14:39.887Z,98817.78
2023-03-08T07:17:06.234Z,98819.41
2023-03-08T07:19:32.562Z,98825.09
2023-03-08T07:21:58.924Z,98820.56
2023-03-08T07:24:25.246Z,98830.56
2023-03-08T07:26:51.590Z,98826.69
2023-03-08T07:29:17.887Z,98820.34
2023-03-08T07:31:44.348Z,98824.06
2023-03-08T07:34:10.677Z,98818.38
2023-03-08T07:36:38.309Z,98817.91
2023-03-08T07:39:04.633Z,98823.25
2023-03-08T07:41:33.066Z,98821.13
2023-03-08T07:43:59.406Z,98827.31
2023-03-08T07:46:25.818Z,98825.84
2023-03-08T07:48:54.764Z,98829.44
2023-03-08T07:51:21.551Z,98816.19
2023-03-08T07:53:47.915Z,98823.78
2023-03-08T07:56:14.435Z,98817.59
2023-03-08T07:58:40.978Z,98814.47
2023-03-08T08:01:07.292Z,98816.59
2023-03-08T08:03:33.759Z,98820.31
2023-03-08T08:06:00.136Z,98822.44
2023-03-08T08:08:26.508Z,98814.47
2023-03-08T08:10:52.819Z,98816.88
2023-03-08T08:13:19.159Z,98823.56
2023-03-08T08:15:45.502Z,98813.56
2023-03-08T08:18:12.114Z,98808.84
2023-03-08T08:20:38.494Z,98804.66
2023-03-08T08:23:04.801Z,98803.16
2023-03-08T08:25:31.102Z,98791.19
2023-03-08T08:27:57.587Z,98787.97
2023-03-08T08:30:23.920Z,98797.69
2023-03-08T08:32:50.360Z,98789.25
2023-03-08T08:35:16.740Z,98790.66
2023-03-08T08:37:43.086Z,98801.41
2023-03-08T08:40:10.656Z,98790.88
2023-03-08T08:42:37.041Z,98787.16
2023-03-08T08:45:03.472Z,98789.19
2023-03-08T08:47:29.844Z,98787.84
2023-03-08T08:49:56.169Z,98775.25
2023-03-08T08:52:22.651Z,98775.47
2023-03-08T08:54:49.084Z,98777.88
2023-03-08T08:57:15.458Z,98770.00
2023-03-08T08:59:41.803Z,98779.78
2023-03-08T09:02:08.158Z,98777.84
2023-03-08T09:04:34.784Z,98767.41
2023-03-08T09:07:01.199Z,98761.00
2023-03-08T09:09:27.617Z,98764.56
2023-03-08T09:11:55.730Z,98761.69
2023-03-08T09:14:22.262Z,98752.16
2023-03-08T09:16:48.689Z,98749.84
2023-03-08T09:19:15.674Z,98734.84
2023-03-08T09:21:42.006Z,98732.06
2023-03-08T09:24:10.562Z,98728.31
2023-03-08T09:26:36.899Z,98723.03
2023-03-08T09:29:05.515Z,98716.44
2023-03-08T09:31:32.016Z,98714.84
2023-03-08T09:33:58.622Z,98714.19
2023-03-08T09:36:24.944Z,98710.75
2023-03-08T09:38:52.293Z,98715.94
2023-03-08T09:41:18.608Z,98704.97
2023-03-08T09:43:44.958Z,98699.66
2023-03-08T09:46:11.312Z,98690.63
2023-03-08T09:48:37.646Z,98689.03
2023-03-08T09:51:04.253Z,98681.47
2023-03-08T09:53:30.608Z,98674.91
2023-03-08T09:55:57.074Z,98671.25
2023-03-08T09:58:23.481Z,98664.78
2023-03-08T10:00:49.874Z,98658.06
2023-03-08T10:03:16.370Z,98651.41
2023-03-08T10:05:42.788Z,98657.31
2023-03-08T10:08:09.127Z,98647.53
2023-03-08T10:10:35.446Z,98649.78
2023-03-08T10:13:01.753Z,98659.31
2023-03-08T10:15:28.137Z,98651.00
2023-03-08T10:17:54.542Z,98646.34
2023-03-08T10:20:21.179Z,98635.00
2023-03-08T10:22:47.485Z,98636.63
2023-03-08T10:25:13.816Z,98640.72
2023-03-08T10:27:40.175Z,98633.50
2023-03-08T10:30:06.512Z,98635.16
2023-03-08T10:32:33.287Z,98621.66
2023-03-08T10:34:59.652Z,98613.59
2023-03-08T10:37:25.980Z,98622.37
2023-03-08T10:39:53.501Z,98629.03
2023-03-08T10:42:21.221Z,98620.53
2023-03-08T10:44:47.540Z,98616.00
2023-03-08T10:47:13.895Z,98610.78
2023-03-08T10:49:40.194Z,98614.19
2023-03-08T10:52:06.507Z,98604.13
2023-03-08T10:54:32.874Z,98614.28
2023-03-08T10:56:59.260Z,98605.53
2023-03-08T10:59:29.726Z,98597.06
2023-03-08T11:01:56.228Z,98599.22
2023-03-08T11:04:22.629Z,98593.25
2023-03-08T11:06:49.001Z,98581.56
2023-03-08T11:09:15.373Z,98579.66
2023-03-08T11:11:41.703Z,98574.69
2023-03-08T11:14:08.029Z,98558.84
2023-03-08T11:16:34.420Z,98561.44
2023-03-08T11:19:00.798Z,98555.94
2023-03-08T11:21:27.130Z,98545.91
2023-03-08T11:23:53.528Z,98541.75
2023-03-08T11:26:19.901Z,98531.72
2023-03-08T11:28:46.235Z,98519.22
2023-03-08T11:31:13.371Z,98513.25
2023-03-08T11:33:39.953Z,98511.56
2023-03-08T11:36:06.443Z,98508.88
2023-03-08T11:38:32.915Z,98494.97
2023-03-08T11:40:59.252Z,98490.00
2023-03-08T11:43:25.562Z,98481.41
2023-03-08T11:45:51.926Z,98474.03
2023-03-08T11:48:18.233Z,98463.56
2023-03-08T11:50:44.576Z,98462.53
2023-03-08T11:53:11.031Z,98459.66
2023-03-08T11:55:37.375Z,98450.09
2023-03-08T11:58:03.674Z,98450.91
2023-03-08T12:00:30.014Z,98433.41
2023-03-08T12:02:56.668Z,98433.47
2023-03-08T12:05:23.495Z,98430.41
2023-03-08T12:07:50.366Z,98419.34
2023-03-08T12:10:16.926Z,98417.00
2023-03-08T12:12:43.330Z,98407.63
2023-03-08T12:15:09.901Z,98407.63
2023-03-08T12:17:37.779Z,98412.22
2023-03-08T12:20:08.294Z,98403.81
2023-03-08T12:22:34.797Z,98398.41
2023-03-08T12:25:01.138Z,98389.50
2023-03-08T12:27:27.472Z,98397.78
2023-03-08T12:29:53.932Z,98399.94
2023-03-08T12:32:20.509Z,98390.78
2023-03-08T12:34:46.996Z,98395.25
2023-03-08T12:37:13.389Z,98382.59
2023-03-08T12:39:39.812Z,98386.34
2023-03-08T12:42:06.217Z,98387.75
2023-03-08T12:44:32.595Z,98391.34
2023-03-08T12:47:03.483Z,98390.22
2023-03-08T12:49:30.500Z,98387.16
2023-03-08T12:51:56.947Z,98381.03
2023-03-08T12:54:23.324Z,98376.28
2023-03-08T12:56:49.706Z,98381.94
2023-03-08T12:59:16.034Z,98385.56
2023-03-08T13:01:42.378Z,98376.50
2023-03-08T13:04:08.835Z,98381.34
2023-03-08T13:06:35.192Z,98381.41
2023-03-08T13:09:01.509Z,98384.25
2023-03-08T13:11:27.816Z,98392.41
2023-03-08T13:13:54.198Z,98394.25
2023-03-08T13:16:20.564Z,98397.59
2023-03-08T13:18:46.991Z,98395.44
2023-03-08T13:21:13.541Z,98387.34
2023-03-08T13:23:40.065Z,98389.72
2023-03-08T13:26:06.510Z,98391.91
2023-03-08T13:28:46.152Z,98397.69
2023-03-08T13:31:13.340Z,98390.56
2023-03-08T13:33:39.830Z,98378.06
2023-03-08T13:36:06.257Z,98375.63
2023-03-08T13:38:32.677Z,98373.38
2023-03-08T13:40:59.123Z,98383.53
2023-03-08T13:43:25.500Z,98369.44
2023-03-08T13:45:51.883Z,98365.28
2023-03-08T13:48:19.410Z,98366.09
2023-03-08T13:50:45.923Z,98358.47
2023-03-08T13:53:12.574Z,98359.44
2023-03-08T13:55:38.941Z,98356.06
2023-03-08T13:58:05.280Z,98352.94
2023-03-08T14:00:31.747Z,98337.56
2023-03-08T14:02:58.410Z,98334.16
2023-03-08T14:05:24.874Z,98328.50
2023-03-08T14:07:51.322Z,98321.53
2023-03-08T14:10:18.696Z,98320.31
2023-03-08T14:12:45.080Z,98317.50
2023-03-08T14:15:11.427Z,98324.56
2023-03-08T14:17:37.824Z,98323.22
2023-03-08T14:20:06.955Z,98316.06
2023-03-08T14:22:39.683Z,98298.44
2023-03-08T14:25:06.452Z,98296.31
2023-03-08T14:27:33.171Z,98304.25
2023-03-08T14:29:59.549Z,98298.09
2023-03-08T14:32:25.939Z,98295.97
2023-03-08T14:34:52.330Z,98301.19
2023-03-08T14:37:18.655Z,98295.50
2023-03-08T14:39:44.965Z,98291.50
2023-03-08T14:42:11.280Z,98284.63
2023-03-08T14:44:37.586Z,98293.84
2023-03-08T14:47:03.897Z,98297.12
2023-03-08T14:49:30.311Z,98293.41
2023-03-08T14:51:56.695Z,98289.31
2023-03-08T14:54:23.226Z,98279.09
2023-03-08T14:56:49.530Z,98263.69
2023-03-08T14:59:27.085Z,98260.63
2023-03-08T15:01:54.359Z,98263.31
2023-03-08T15:04:20.740Z,98256.31
2023-03-08T15:06:47.177Z,98261.31
2023-03-08T15:09:13.510Z,98254.81
2023-03-08T15:11:39.859Z,98239.06
2023-03-08T15:14:06.175Z,98223.28
2023-03-08T15:16:32.582Z,98219.25
2023-03-08T15:18:58.926Z,98225.28
2023-03-08T15:21:25.247Z,98218.09
2023-03-08T15:23:51.619Z,98216.63
2023-03-08T15:26:20.925Z,98229.66
2023-03-08T15:28:47.247Z,98227.78
2023-03-08T15:31:13.653Z,98222.06
2023-03-08T15:33:40.006Z,98225.19
2023-03-08T15:36:06.396Z,98225.72
2023-03-08T15:38:32.828Z,98217.00
2023-03-08T15:40:59.223Z,98212.88
2023-03-08T15:43:25.603Z,98209.16
2023-03-08T15:45:52.016Z,98203.75
2023-03-08T15:48:18.416Z,98207.44
2023-03-08T15:50:44.781Z,98193.63
2023-03-08T15:53:11.124Z,98177.38
2023-03-08T15:55:40.612Z,98184.78
2023-03-08T15:58:08.668Z,98181.06
2023-03-08T16:00:35.690Z,98169.13
2023-03-08T16:03:02.148Z,98179.63
2023-03-08T16:05:29.213Z,98183.12
2023-03-08T16:07:55.738Z,98179.91
2023-03-08T16:10:22.061Z,98168.50
2023-03-08T16:12:48.393Z,98162.81
2023-03-08T16:15:14.768Z,98165.56
2023-03-08T16:17:41.161Z,98161.50
2023-03-08T16:20:07.484Z,98164.25
2023-03-08T16:22:33.878Z,98167.97
2023-03-08T16:25:00.304Z,98172.31
2023-03-08T16:27:26.636Z,98166.94
2023-03-08T16:29:52.962Z,98178.06
2023-03-08T16:32:19.300Z,98167.66
2023-03-08T16:34:50.860Z,98165.44
2023-03-08T16:37:17.172Z,98162.22
2023-03-08T16:39:43.477Z,98148.19
2023-03-08T16:42:09.785Z,98162.56
2023-03-08T16:44:36.089Z,98168.12
2023-03-08T16:47:02.407Z,98166.56
2023-03-08T16:49:29.280Z,98159.06
2023-03-08T16:51:55.576Z,98151.06
2023-03-08T16:54:21.903Z,98153.88
2023-03-08T16:56:48.213Z,98162.06
2023-03-08T16:59:14.631Z,98165.53
2023-03-08T17:01:42.551Z,98156.37
2023-03-08T17:04:08.934Z,98144.28
2023-03-08T17:06:35.318Z,98151.97
2023-03-08T17:09:01.866Z,98160.25
2023-03-08T17:11:28.248Z,98152.66
2023-03-08T17:13:55.539Z,98150.59
2023-03-08T17:16:21.881Z,98143.53
2023-03-08T17:18:48.211Z,98151.03
2023-03-08T17:21:14.539Z,98155.75
2023-03-08T17:23:40.857Z,98151.53
2023-03-08T17:26:07.203Z,98149.09
2023-03-08T17:28:33.514Z,98143.63
2023-03-08T17:30:59.924Z,98151.94
2023-03-08T17:33:26.673Z,98144.28
2023-03-08T17:35:53.270Z,98140.34
2023-03-08T17:38:19.634Z,98138.50
2023-03-08T17:40:46.162Z,98127.50
2023-03-08T17:43:15.571Z,98115.38
2023-03-08T17:45:41.884Z,98115.88
2023-03-08T17:48:10.319Z,98115.12
2023-03-08T17:50:36.726Z,98122.19
2023-03-08T17:53:03.044Z,98123.44
2023-03-08T17:55:29.386Z,98108.47
2023-03-08T17:57:55.709Z,98112.09
2023-03-08T18:00:22.040Z,98111.91
2023-03-08T18:02:48.457Z,98114.38
2023-03-08T18:05:14.855Z,98124.59
2023-03-08T18:07:41.918Z,98119.53
2023-03-08T18:10:11.044Z,98129.28
2023-03-08T18:12:37.378Z,98118.87
2023-03-08T18:15:04.520Z,98133.59
2023-03-08T18:17:30.897Z,98145.09
2023-03-08T18:19:57.262Z,98143.31
2023-03-08T18:22:23.749Z,98145.00
2023-03-08T18:24:50.057Z,98147.38
2023-03-08T18:27:16.458Z,98147.94
2023-03-08T18:29:42.805Z,98144.72
2023-03-08T18:32:11.638Z,98137.78
2023-03-08T18:34:38.609Z,98134.19
2023-03-08T18:37:04.941Z,98126.94
2023-03-08T18:39:31.476Z,98121.13
2023-03-08T18:42:00.042Z,98117.41
2023-03-08T18:44:26.402Z,98112.66
2023-03-08T18:46:52.800Z,98129.34
2023-03-08T18:49:19.214Z,98118.50
2023-03-08T18:51:45.601Z,98123.66
2023-03-08T18:54:11.929Z,98134.09
2023-03-08T18:56:38.264Z,98125.97
2023-03-08T18:59:04.644Z,98124.09
2023-03-08T19:01:31.390Z,98129.62
2023-03-08T19:03:57.763Z,98131.19
2023-03-08T19:06:24.092Z,98136.97
2023-03-08T19:08:50.415Z,98136.88
2023-03-08T19:11:16.761Z,98119.84
2023-03-08T19:13:44.571Z,98113.94
2023-03-08T19:16:10.931Z,98121.06
2023-03-08T19:18:37.242Z,98112.59
2023-03-08T19:21:03.593Z,98105.22
2023-03-08T19:23:29.931Z,98109.66
2023-03-08T19:26:15.159Z,98107.69
2023-03-08T19:28:44.535Z,98106.56
2023-03-08T19:31:10.950Z,98104.00
2023-03-08T19:33:37.295Z,98122.44
2023-03-08T19:36:03.651Z,98122.59
2023-03-08T19:38:30.041Z,98125.03
2023-03-08T19:40:56.347Z,98127.97
2023-03-08T19:43:22.684Z,98127.84
2023-03-08T19:45:49.081Z,98128.59
2023-03-08T19:48:15.475Z,98120.84
2023-03-08T19:50:41.928Z,98129.12
2023-03-08T19:53:08.259Z,98121.81
2023-03-08T19:55:34.588Z,98120.94
2023-03-08T19:58:00.908Z,98113.53
2023-03-08T20:00:28.893Z,98117.44
2023-03-08T20:02:56.577Z,98116.28
2023-03-08T20:05:22.920Z,98103.72
2023-03-08T20:07:52.541Z,98107.66
2023-03-08T20:10:18.940Z,98104.97
2023-03-08T20:12:46.116Z,98113.63
2023-03-08T20:15:12.433Z,98109.06
2023-03-08T20:17:38.874Z,98109.50
2023-03-08T20:20:06.529Z,98115.41
2023-03-08T20:22:32.860Z,98117.47
2023-03-08T20:24:59.189Z,98117.47
2023-03-08T20:27:25.491Z,98115.59
2023-03-08T20:29:51.812Z,98128.84
2023-03-08T20:32:18.136Z,98117.72
2023-03-08T20:34:44.454Z,98122.72
2023-03-08T20:37:10.782Z,98124.41
2023-03-08T20:39:38.514Z,98125.66
2023-03-08T20:42:04.852Z,98126.09
2023-03-08T20:44:34.560Z,98128.84
2023-03-08T20:47:01.518Z,98131.03
2023-03-08T20:49:28.758Z,98126.91
2023-03-08T20:51:55.163Z,98132.63
2023-03-08T20:54:21.495Z,98133.84
2023-03-08T20:56:48.642Z,98136.78
2023-03-08T20:59:16.149Z,98140.28
2023-03-08T21:01:45.033Z,98135.81
2023-03-08T21:04:12.141Z,98128.50
2023-03-08T21:06:38.469Z,98134.84
2023-03-08T21:09:04.862Z,98126.25
2023-03-08T21:11:31.194Z,98138.78
2023-03-08T21:13:57.724Z,98130.59
2023-03-08T21:16:24.077Z,98129.06
2023-03-08T21:18:50.419Z,98124.81
2023-03-08T21:21:16.736Z,98119.41
2023-03-08T21:23:43.055Z,98112.91
2023-03-08T21:26:09.458Z,98114.03
2023-03-08T21:28:35.807Z,98119.34
2023-03-08T21:31:02.173Z,98114.78
2023-03-08T21:33:28.512Z,98115.03
2023-03-08T21:35:54.916Z,98115.38
2023-03-08T21:38:22.628Z,98109.78
2023-03-08T21:40:50.087Z,98104.34
2023-03-08T21:43:16.423Z,98100.44
2023-03-08T21:45:42.746Z,98097.09
2023-03-08T21:48:09.093Z,98097.31
2023-03-08T21:50:38.526Z,98102.03
2023-03-08T21:53:04.852Z,98092.47
2023-03-08T21:55:31.195Z,98095.13
2023-03-08T21:57:57.499Z,98097.63
2023-03-08T22:00:23.887Z,98090.88
2023-03-08T22:02:50.479Z,98086.16
2023-03-08T22:05:17.522Z,98080.63
2023-03-08T22:07:43.836Z,98083.06
2023-03-08T22:10:10.151Z,98071.38
2023-03-08T22:12:36.518Z,98076.97
2023-03-08T22:15:02.848Z,98068.53
2023-03-08T22:17:29.235Z,98070.03
2023-03-08T22:19:55.553Z,98074.56
2023-03-08T22:22:21.871Z,98073.25
2023-03-08T22:24:48.304Z,98068.53
2023-03-08T22:27:14.628Z,98066.72
2023-03-08T22:29:40.959Z,98070.38
2023-03-08T22:32:11.570Z,98067.81
2023-03-08T22:34:37.978Z,98076.72
2023-03-08T22:37:06.236Z,98079.72
2023-03-08T22:39:32.588Z,98059.97
2023-03-08T22:41:58.964Z,98060.66
2023-03-08T22:44:25.299Z,98059.69
2023-03-08T22:46:51.673Z,98061.84
2023-03-08T22:49:17.982Z,98071.72
2023-03-08T22:51:44.512Z,98055.31
2023-03-08T22:54:10.833Z,98064.44
2023-03-08T22:56:37.222Z,98052.31
2023-03-08T22:59:03.549Z,98055.88
2023-03-08T23:01:30.147Z,98063.44
2023-03-08T23:03:57.265Z,98056.50
2023-03-08T23:06:23.666Z,98056.56
2023-03-08T23:08:50.556Z,98066.81
2023-03-08T23:11:17.128Z,98062.81
2023-03-08T23:13:43.438Z,98064.66
2023-03-08T23:16:09.868Z,98061.78
2023-03-08T23:18:36.215Z,98054.88
2023-03-08T23:21:03.508Z,98053.91
2023-03-08T23:23:29.862Z,98064.22
2023-03-08T23:25:56.186Z,98062.63
2023-03-08T23:28:22.516Z,98057.22
2023-03-08T23:30:48.849Z,98046.06
2023-03-08T23:33:15.202Z,98037.50
2023-03-08T23:35:41.534Z,98040.91
2023-03-08T23:38:07.891Z,98043.28
2023-03-08T23:40:34.252Z,98033.94
2023-03-08T23:43:00.657Z,98045.62
2023-03-08T23:45:27.200Z,98041.81
2023-03-08T23:47:53.581Z,98043.41
2023-03-08T23:50:19.904Z,98046.34
2023-03-08T23:52:46.318Z,98024.69
2023-03-08T23:55:12.699Z,98023.16
2023-03-08T23:57:39.048Z,98016.69
